Terminal Aerodrome Forecast
Issued by NWS Charleston, WV

Current Version | Previous Version | Graphics & Text | Print | Product List | Glossary On
Versions: 1 2 3 4 5 6 7 8 9 10 11 12 13 14 15 16 17 18 19 20 21 22 23
855
FTUS41 KRLX 122327
TAFHTS
TAF
KHTS 122327Z 1300/1324 31013G22KT P6SM -SHSN BKN040
      TEMPO 1300/1302 5SM -SN BKN030
     FM130300 29010G17KT P6SM SCT100
     FM130700 27007KT P6SM SCT250
     FM131200 25003KT P6SM SCT250
     FM131500 23005KT P6SM SCT050=

USA.gov is the U.S. government's official web portal to all federal, state and local government web resources and services.